sensor_id;sensor_type;location;lat;lon;timestamp;P1;durP1;ratioP1;P2;durP2;ratioP2
76852;SDS011;65825;52.232;10.566;2023-04-24T00:01:44;3.10;;;1.80;;
76852;SDS011;65825;52.232;10.566;2023-04-24T00:04:10;3.77;;;1.60;;
76852;SDS011;65825;52.232;10.566;2023-04-24T00:06:36;2.53;;;1.77;;
76852;SDS011;65825;52.232;10.566;2023-04-24T00:11:28;3.65;;;1.80;;
76852;SDS011;65825;52.232;10.566;2023-04-24T00:13:54;5.35;;;1.55;;
76852;SDS011;65825;52.232;10.566;2023-04-24T00:16:19;2.75;;;1.85;;
76852;SDS011;65825;52.232;10.566;2023-04-24T00:18:45;2.58;;;1.70;;
76852;SDS011;65825;52.232;10.566;2023-04-24T00:21:10;4.15;;;1.50;;
76852;SDS011;65825;52.232;10.566;2023-04-24T00:23:36;4.25;;;1.52;;
76852;SDS011;65825;52.232;10.566;2023-04-24T00:26:01;2.85;;;1.52;;
76852;SDS011;65825;52.232;10.566;2023-04-24T00:28:27;2.28;;;1.40;;
76852;SDS011;65825;52.232;10.566;2023-04-24T00:30:52;1.92;;;1.40;;
76852;SDS011;65825;52.232;10.566;2023-04-24T00:33:17;3.38;;;1.40;;
76852;SDS011;65825;52.232;10.566;2023-04-24T00:35:43;2.10;;;1.33;;
76852;SDS011;65825;52.232;10.566;2023-04-24T00:38:08;3.27;;;1.40;;
76852;SDS011;65825;52.232;10.566;2023-04-24T00:40:33;2.87;;;1.40;;
76852;SDS011;65825;52.232;10.566;2023-04-24T00:42:58;1.60;;;1.30;;
76852;SDS011;65825;52.232;10.566;2023-04-24T00:45:24;2.97;;;1.40;;
76852;SDS011;65825;52.232;10.566;2023-04-24T00:47:49;1.80;;;1.30;;
76852;SDS011;65825;52.232;10.566;2023-04-24T00:50:17;1.75;;;1.23;;
76852;SDS011;65825;52.232;10.566;2023-04-24T00:52:42;2.03;;;1.27;;
76852;SDS011;65825;52.232;10.566;2023-04-24T00:55:08;2.30;;;1.40;;
76852;SDS011;65825;52.232;10.566;2023-04-24T00:57:33;3.28;;;2.47;;
76852;SDS011;65825;52.232;10.566;2023-04-24T00:59:59;2.97;;;1.33;;
76852;SDS011;65825;52.232;10.566;2023-04-24T01:02:24;2.20;;;1.30;;
76852;SDS011;65825;52.232;10.566;2023-04-24T01:04:51;2.05;;;1.40;;
76852;SDS011;65825;52.232;10.566;2023-04-24T01:07:17;2.78;;;1.60;;
76852;SDS011;65825;52.232;10.566;2023-04-24T01:09:45;2.55;;;1.30;;
76852;SDS011;65825;52.232;10.566;2023-04-24T01:12:14;1.85;;;1.20;;
76852;SDS011;65825;52.232;10.566;2023-04-24T01:14:40;2.80;;;1.40;;
76852;SDS011;65825;52.232;10.566;2023-04-24T01:17:05;1.70;;;1.20;;
76852;SDS011;65825;52.232;10.566;2023-04-24T01:19:32;1.58;;;1.20;;
76852;SDS011;65825;52.232;10.566;2023-04-24T01:21:58;2.00;;;1.23;;
76852;SDS011;65825;52.232;10.566;2023-04-24T01:24:24;7.47;;;1.60;;
76852;SDS011;65825;52.232;10.566;2023-04-24T01:26:49;1.55;;;1.20;;
76852;SDS011;65825;52.232;10.566;2023-04-24T01:29:15;3.10;;;1.38;;
76852;SDS011;65825;52.232;10.566;2023-04-24T01:31:40;2.78;;;1.50;;
76852;SDS011;65825;52.232;10.566;2023-04-24T01:34:05;1.80;;;1.30;;
76852;SDS011;65825;52.232;10.566;2023-04-24T01:36:31;1.90;;;1.25;;
76852;SDS011;65825;52.232;10.566;2023-04-24T01:38:58;2.63;;;1.27;;
76852;SDS011;65825;52.232;10.566;2023-04-24T01:41:23;2.13;;;1.50;;
76852;SDS011;65825;52.232;10.566;2023-04-24T01:43:49;2.90;;;1.60;;
76852;SDS011;65825;52.232;10.566;2023-04-24T01:46:15;2.30;;;1.23;;
76852;SDS011;65825;52.232;10.566;2023-04-24T01:48:41;1.95;;;1.20;;
76852;SDS011;65825;52.232;10.566;2023-04-24T01:51:06;2.15;;;1.55;;
76852;SDS011;65825;52.232;10.566;2023-04-24T01:53:31;2.25;;;1.30;;
76852;SDS011;65825;52.232;10.566;2023-04-24T01:55:57;2.35;;;1.30;;
76852;SDS011;65825;52.232;10.566;2023-04-24T01:58:22;2.50;;;1.40;;
76852;SDS011;65825;52.232;10.566;2023-04-24T02:00:48;1.52;;;1.23;;
76852;SDS011;65825;52.232;10.566;2023-04-24T02:03:13;3.43;;;1.30;;
76852;SDS011;65825;52.232;10.566;2023-04-24T02:05:38;1.75;;;1.40;;
76852;SDS011;65825;52.232;10.566;2023-04-24T02:08:04;2.40;;;1.20;;
76852;SDS011;65825;52.232;10.566;2023-04-24T02:10:29;3.50;;;1.43;;
76852;SDS011;65825;52.232;10.566;2023-04-24T02:12:54;1.70;;;1.20;;
76852;SDS011;65825;52.232;10.566;2023-04-24T02:15:20;2.08;;;1.20;;
76852;SDS011;65825;52.232;10.566;2023-04-24T02:17:45;3.45;;;1.40;;
76852;SDS011;65825;52.232;10.566;2023-04-24T02:20:10;3.77;;;1.43;;
76852;SDS011;65825;52.232;10.566;2023-04-24T02:22:36;1.60;;;1.20;;
76852;SDS011;65825;52.232;10.566;2023-04-24T02:25:01;1.70;;;1.10;;
76852;SDS011;65825;52.232;10.566;2023-04-24T02:27:27;4.50;;;1.40;;
76852;SDS011;65825;52.232;10.566;2023-04-24T02:29:52;2.03;;;1.33;;
76852;SDS011;65825;52.232;10.566;2023-04-24T02:32:17;2.30;;;1.40;;
76852;SDS011;65825;52.232;10.566;2023-04-24T02:34:43;3.30;;;1.57;;
76852;SDS011;65825;52.232;10.566;2023-04-24T02:37:08;3.50;;;1.55;;
76852;SDS011;65825;52.232;10.566;2023-04-24T02:39:33;2.17;;;1.40;;
76852;SDS011;65825;52.232;10.566;2023-04-24T02:41:58;3.00;;;1.50;;
76852;SDS011;65825;52.232;10.566;2023-04-24T02:44:24;2.63;;;1.30;;
76852;SDS011;65825;52.232;10.566;2023-04-24T02:46:50;2.13;;;1.27;;
76852;SDS011;65825;52.232;10.566;2023-04-24T02:49:15;1.53;;;1.23;;
76852;SDS011;65825;52.232;10.566;2023-04-24T02:51:40;3.00;;;1.40;;
76852;SDS011;65825;52.232;10.566;2023-04-24T02:54:06;2.15;;;1.38;;
76852;SDS011;65825;52.232;10.566;2023-04-24T02:56:33;2.63;;;1.30;;
76852;SDS011;65825;52.232;10.566;2023-04-24T02:58:59;1.93;;;1.23;;
76852;SDS011;65825;52.232;10.566;2023-04-24T03:01:24;4.27;;;1.27;;
76852;SDS011;65825;52.232;10.566;2023-04-24T03:03:50;2.72;;;1.60;;
76852;SDS011;65825;52.232;10.566;2023-04-24T03:06:15;2.10;;;1.27;;
76852;SDS011;65825;52.232;10.566;2023-04-24T03:08:40;2.10;;;1.20;;
76852;SDS011;65825;52.232;10.566;2023-04-24T03:11:06;4.80;;;1.60;;
76852;SDS011;65825;52.232;10.566;2023-04-24T03:13:31;1.50;;;1.13;;
76852;SDS011;65825;52.232;10.566;2023-04-24T03:15:56;2.57;;;1.40;;
76852;SDS011;65825;52.232;10.566;2023-04-24T03:18:21;1.57;;;1.20;;
76852;SDS011;65825;52.232;10.566;2023-04-24T03:20:47;1.83;;;1.20;;
76852;SDS011;65825;52.232;10.566;2023-04-24T03:23:12;1.92;;;1.27;;
76852;SDS011;65825;52.232;10.566;2023-04-24T03:25:37;1.48;;;1.13;;
76852;SDS011;65825;52.232;10.566;2023-04-24T03:28:04;1.30;;;1.02;;
76852;SDS011;65825;52.232;10.566;2023-04-24T03:30:29;1.83;;;1.27;;
76852;SDS011;65825;52.232;10.566;2023-04-24T03:32:55;6.78;;;1.30;;
76852;SDS011;65825;52.232;10.566;2023-04-24T03:35:20;2.17;;;1.17;;
76852;SDS011;65825;52.232;10.566;2023-04-24T03:37:46;2.58;;;1.00;;
76852;SDS011;65825;52.232;10.566;2023-04-24T03:40:12;1.63;;;1.20;;
76852;SDS011;65825;52.232;10.566;2023-04-24T03:42:37;1.50;;;1.10;;
76852;SDS011;65825;52.232;10.566;2023-04-24T03:45:02;1.40;;;1.07;;
76852;SDS011;65825;52.232;10.566;2023-04-24T03:47:28;1.50;;;1.05;;
76852;SDS011;65825;52.232;10.566;2023-04-24T03:49:53;1.57;;;1.10;;
76852;SDS011;65825;52.232;10.566;2023-04-24T03:52:20;1.55;;;1.13;;
76852;SDS011;65825;52.232;10.566;2023-04-24T03:54:45;1.67;;;1.10;;
76852;SDS011;65825;52.232;10.566;2023-04-24T03:57:11;1.17;;;1.00;;
76852;SDS011;65825;52.232;10.566;2023-04-24T03:59:36;1.43;;;1.10;;
76852;SDS011;65825;52.232;10.566;2023-04-24T04:02:01;1.00;;;0.90;;
76852;SDS011;65825;52.232;10.566;2023-04-24T04:04:26;1.80;;;1.30;;
76852;SDS011;65825;52.232;10.566;2023-04-24T04:06:52;3.27;;;1.20;;
76852;SDS011;65825;52.232;10.566;2023-04-24T04:09:18;1.50;;;1.00;;
76852;SDS011;65825;52.232;10.566;2023-04-24T04:11:43;1.40;;;1.02;;
76852;SDS011;65825;52.232;10.566;2023-04-24T04:14:09;1.30;;;1.20;;
76852;SDS011;65825;52.232;10.566;2023-04-24T04:16:34;2.07;;;1.10;;
76852;SDS011;65825;52.232;10.566;2023-04-24T04:19:01;1.90;;;1.20;;
76852;SDS011;65825;52.232;10.566;2023-04-24T04:21:27;2.15;;;1.15;;
76852;SDS011;65825;52.232;10.566;2023-04-24T04:23:53;1.40;;;1.10;;
76852;SDS011;65825;52.232;10.566;2023-04-24T04:26:18;1.60;;;1.03;;
76852;SDS011;65825;52.232;10.566;2023-04-24T04:28:44;1.73;;;1.15;;
76852;SDS011;65825;52.232;10.566;2023-04-24T04:31:09;1.38;;;1.10;;
76852;SDS011;65825;52.232;10.566;2023-04-24T04:33:34;2.30;;;1.33;;
76852;SDS011;65825;52.232;10.566;2023-04-24T04:36:01;2.67;;;1.33;;
76852;SDS011;65825;52.232;10.566;2023-04-24T04:38:26;2.25;;;1.15;;
76852;SDS011;65825;52.232;10.566;2023-04-24T04:40:54;1.85;;;1.23;;
76852;SDS011;65825;52.232;10.566;2023-04-24T04:43:21;2.15;;;1.33;;
76852;SDS011;65825;52.232;10.566;2023-04-24T04:45:47;2.22;;;1.30;;
76852;SDS011;65825;52.232;10.566;2023-04-24T04:48:13;2.28;;;1.25;;
76852;SDS011;65825;52.232;10.566;2023-04-24T04:50:39;1.55;;;1.10;;
76852;SDS011;65825;52.232;10.566;2023-04-24T04:53:04;1.67;;;1.25;;
76852;SDS011;65825;52.232;10.566;2023-04-24T04:55:30;1.80;;;1.00;;
76852;SDS011;65825;52.232;10.566;2023-04-24T04:57:55;1.85;;;1.30;;
76852;SDS011;65825;52.232;10.566;2023-04-24T05:00:21;2.97;;;1.20;;
76852;SDS011;65825;52.232;10.566;2023-04-24T05:02:47;3.00;;;1.30;;
76852;SDS011;65825;52.232;10.566;2023-04-24T05:05:12;16.38;;;2.00;;
76852;SDS011;65825;52.232;10.566;2023-04-24T05:07:37;1.52;;;1.20;;
76852;SDS011;65825;52.232;10.566;2023-04-24T05:10:03;4.22;;;1.38;;
76852;SDS011;65825;52.232;10.566;2023-04-24T05:12:28;2.20;;;1.20;;
76852;SDS011;65825;52.232;10.566;2023-04-24T05:14:53;1.50;;;1.10;;
76852;SDS011;65825;52.232;10.566;2023-04-24T05:17:19;1.23;;;0.98;;
76852;SDS011;65825;52.232;10.566;2023-04-24T05:19:44;2.60;;;1.17;;
76852;SDS011;65825;52.232;10.566;2023-04-24T05:22:10;1.77;;;1.20;;
76852;SDS011;65825;52.232;10.566;2023-04-24T05:24:36;2.30;;;1.10;;
76852;SDS011;65825;52.232;10.566;2023-04-24T05:27:02;4.72;;;1.33;;
76852;SDS011;65825;52.232;10.566;2023-04-24T05:29:29;1.52;;;1.15;;
76852;SDS011;65825;52.232;10.566;2023-04-24T05:31:58;2.88;;;1.00;;
76852;SDS011;65825;52.232;10.566;2023-04-24T05:34:24;1.83;;;1.10;;
76852;SDS011;65825;52.232;10.566;2023-04-24T05:36:49;2.00;;;1.05;;
76852;SDS011;65825;52.232;10.566;2023-04-24T05:39:15;1.55;;;1.08;;
76852;SDS011;65825;52.232;10.566;2023-04-24T05:41:41;1.88;;;1.20;;
76852;SDS011;65825;52.232;10.566;2023-04-24T05:44:06;1.52;;;1.00;;
76852;SDS011;65825;52.232;10.566;2023-04-24T05:46:31;1.27;;;1.10;;
76852;SDS011;65825;52.232;10.566;2023-04-24T05:48:56;2.10;;;1.20;;
76852;SDS011;65825;52.232;10.566;2023-04-24T05:51:22;1.77;;;1.10;;
76852;SDS011;65825;52.232;10.566;2023-04-24T05:53:48;1.05;;;0.95;;
76852;SDS011;65825;52.232;10.566;2023-04-24T05:56:14;3.38;;;1.17;;
76852;SDS011;65825;52.232;10.566;2023-04-24T05:58:40;2.72;;;1.02;;
76852;SDS011;65825;52.232;10.566;2023-04-24T06:01:06;1.30;;;1.00;;
76852;SDS011;65825;52.232;10.566;2023-04-24T06:03:33;1.42;;;1.02;;
76852;SDS011;65825;52.232;10.566;2023-04-24T06:05:58;1.75;;;1.02;;
76852;SDS011;65825;52.232;10.566;2023-04-24T06:08:24;2.58;;;1.17;;
76852;SDS011;65825;52.232;10.566;2023-04-24T06:10:49;1.42;;;1.00;;
76852;SDS011;65825;52.232;10.566;2023-04-24T06:13:15;2.95;;;1.13;;
76852;SDS011;65825;52.232;10.566;2023-04-24T06:15:40;2.67;;;1.17;;
76852;SDS011;65825;52.232;10.566;2023-04-24T06:18:06;2.58;;;1.15;;
76852;SDS011;65825;52.232;10.566;2023-04-24T06:20:32;2.10;;;1.27;;
76852;SDS011;65825;52.232;10.566;2023-04-24T06:22:57;1.92;;;1.20;;
76852;SDS011;65825;52.232;10.566;2023-04-24T06:25:24;2.23;;;1.30;;
76852;SDS011;65825;52.232;10.566;2023-04-24T06:27:51;2.50;;;1.50;;
76852;SDS011;65825;52.232;10.566;2023-04-24T06:30:16;4.30;;;1.90;;
76852;SDS011;65825;52.232;10.566;2023-04-24T06:32:41;3.63;;;1.70;;
76852;SDS011;65825;52.232;10.566;2023-04-24T06:35:07;4.03;;;1.53;;
76852;SDS011;65825;52.232;10.566;2023-04-24T06:37:34;5.60;;;1.60;;
76852;SDS011;65825;52.232;10.566;2023-04-24T06:39:59;2.47;;;1.50;;
76852;SDS011;65825;52.232;10.566;2023-04-24T06:42:25;2.55;;;1.50;;
76852;SDS011;65825;52.232;10.566;2023-04-24T06:44:50;3.33;;;1.60;;
76852;SDS011;65825;52.232;10.566;2023-04-24T06:47:16;2.87;;;1.47;;
76852;SDS011;65825;52.232;10.566;2023-04-24T06:49:41;2.92;;;1.67;;
76852;SDS011;65825;52.232;10.566;2023-04-24T06:52:07;3.75;;;1.60;;
76852;SDS011;65825;52.232;10.566;2023-04-24T06:54:32;4.75;;;1.65;;
76852;SDS011;65825;52.232;10.566;2023-04-24T06:56:58;2.97;;;1.60;;
76852;SDS011;65825;52.232;10.566;2023-04-24T06:59:25;2.30;;;1.48;;
76852;SDS011;65825;52.232;10.566;2023-04-24T07:01:50;3.42;;;1.60;;
76852;SDS011;65825;52.232;10.566;2023-04-24T07:04:18;2.40;;;1.27;;
76852;SDS011;65825;52.232;10.566;2023-04-24T07:06:44;2.17;;;1.30;;
76852;SDS011;65825;52.232;10.566;2023-04-24T07:09:11;2.25;;;1.25;;
76852;SDS011;65825;52.232;10.566;2023-04-24T07:11:38;2.40;;;1.48;;
76852;SDS011;65825;52.232;10.566;2023-04-24T07:14:05;2.28;;;1.23;;
76852;SDS011;65825;52.232;10.566;2023-04-24T07:16:31;2.80;;;1.30;;
76852;SDS011;65825;52.232;10.566;2023-04-24T07:18:56;2.33;;;1.40;;
76852;SDS011;65825;52.232;10.566;2023-04-24T07:21:21;1.10;;;1.00;;
76852;SDS011;65825;52.232;10.566;2023-04-24T07:23:47;2.27;;;1.30;;
76852;SDS011;65825;52.232;10.566;2023-04-24T07:26:12;3.10;;;1.27;;
76852;SDS011;65825;52.232;10.566;2023-04-24T07:28:39;1.50;;;1.05;;
76852;SDS011;65825;52.232;10.566;2023-04-24T07:31:04;4.07;;;1.30;;
76852;SDS011;65825;52.232;10.566;2023-04-24T07:33:30;2.30;;;1.30;;
76852;SDS011;65825;52.232;10.566;2023-04-24T07:35:55;3.70;;;1.30;;
76852;SDS011;65825;52.232;10.566;2023-04-24T07:38:21;2.08;;;1.13;;
76852;SDS011;65825;52.232;10.566;2023-04-24T07:40:47;1.73;;;1.10;;
76852;SDS011;65825;52.232;10.566;2023-04-24T07:43:12;1.50;;;1.10;;
76852;SDS011;65825;52.232;10.566;2023-04-24T07:45:38;3.90;;;1.30;;
76852;SDS011;65825;52.232;10.566;2023-04-24T07:50:29;2.85;;;1.50;;
76852;SDS011;65825;52.232;10.566;2023-04-24T07:52:55;2.53;;;1.33;;
76852;SDS011;65825;52.232;10.566;2023-04-24T07:55:20;3.57;;;1.30;;
76852;SDS011;65825;52.232;10.566;2023-04-24T07:57:45;2.60;;;1.20;;
76852;SDS011;65825;52.232;10.566;2023-04-24T08:00:11;3.38;;;1.40;;
76852;SDS011;65825;52.232;10.566;2023-04-24T08:02:37;2.97;;;1.80;;
76852;SDS011;65825;52.232;10.566;2023-04-24T08:05:02;2.70;;;1.60;;
76852;SDS011;65825;52.232;10.566;2023-04-24T08:07:31;3.20;;;1.60;;
76852;SDS011;65825;52.232;10.566;2023-04-24T08:09:56;1.95;;;1.40;;
76852;SDS011;65825;52.232;10.566;2023-04-24T08:12:22;2.92;;;1.50;;
76852;SDS011;65825;52.232;10.566;2023-04-24T08:14:47;2.72;;;1.70;;
76852;SDS011;65825;52.232;10.566;2023-04-24T08:17:13;3.40;;;1.85;;
76852;SDS011;65825;52.232;10.566;2023-04-24T08:19:39;3.38;;;1.95;;
76852;SDS011;65825;52.232;10.566;2023-04-24T08:22:07;3.30;;;2.10;;
76852;SDS011;65825;52.232;10.566;2023-04-24T08:24:33;5.10;;;2.10;;
76852;SDS011;65825;52.232;10.566;2023-04-24T08:26:58;3.50;;;2.00;;
76852;SDS011;65825;52.232;10.566;2023-04-24T08:29:23;2.70;;;1.75;;
76852;SDS011;65825;52.232;10.566;2023-04-24T08:31:49;2.95;;;1.85;;
76852;SDS011;65825;52.232;10.566;2023-04-24T08:34:14;4.37;;;2.00;;
76852;SDS011;65825;52.232;10.566;2023-04-24T08:36:40;3.90;;;2.00;;
76852;SDS011;65825;52.232;10.566;2023-04-24T08:39:05;3.55;;;1.90;;
76852;SDS011;65825;52.232;10.566;2023-04-24T08:41:31;4.10;;;2.00;;
76852;SDS011;65825;52.232;10.566;2023-04-24T08:43:59;3.00;;;1.83;;
76852;SDS011;65825;52.232;10.566;2023-04-24T08:46:26;2.78;;;1.60;;
76852;SDS011;65825;52.232;10.566;2023-04-24T08:48:52;2.90;;;1.70;;
76852;SDS011;65825;52.232;10.566;2023-04-24T08:51:17;3.75;;;1.65;;
76852;SDS011;65825;52.232;10.566;2023-04-24T08:53:45;2.97;;;1.60;;
76852;SDS011;65825;52.232;10.566;2023-04-24T08:56:11;2.90;;;1.75;;
76852;SDS011;65825;52.232;10.566;2023-04-24T08:58:37;3.20;;;1.75;;
76852;SDS011;65825;52.232;10.566;2023-04-24T09:01:03;2.42;;;1.63;;
76852;SDS011;65825;52.232;10.566;2023-04-24T09:03:30;2.95;;;1.80;;
76852;SDS011;65825;52.232;10.566;2023-04-24T09:08:24;4.18;;;1.80;;
76852;SDS011;65825;52.232;10.566;2023-04-24T09:10:50;2.55;;;1.90;;
76852;SDS011;65825;52.232;10.566;2023-04-24T09:13:16;2.53;;;1.75;;
76852;SDS011;65825;52.232;10.566;2023-04-24T09:15:41;3.13;;;1.80;;
76852;SDS011;65825;52.232;10.566;2023-04-24T09:18:07;2.55;;;1.70;;
76852;SDS011;65825;52.232;10.566;2023-04-24T09:20:33;3.78;;;1.90;;
76852;SDS011;65825;52.232;10.566;2023-04-24T09:23:01;2.17;;;1.58;;
76852;SDS011;65825;52.232;10.566;2023-04-24T09:25:33;3.42;;;1.70;;
76852;SDS011;65825;52.232;10.566;2023-04-24T09:28:01;3.20;;;1.90;;
76852;SDS011;65825;52.232;10.566;2023-04-24T09:30:28;2.30;;;1.70;;
76852;SDS011;65825;52.232;10.566;2023-04-24T09:33:09;3.38;;;1.73;;
76852;SDS011;65825;52.232;10.566;2023-04-24T09:35:35;2.50;;;1.80;;
76852;SDS011;65825;52.232;10.566;2023-04-24T09:38:00;3.40;;;2.00;;
76852;SDS011;65825;52.232;10.566;2023-04-24T09:40:26;2.80;;;1.80;;
76852;SDS011;65825;52.232;10.566;2023-04-24T09:42:52;3.08;;;1.98;;
76852;SDS011;65825;52.232;10.566;2023-04-24T09:45:18;4.28;;;2.10;;
76852;SDS011;65825;52.232;10.566;2023-04-24T09:47:44;3.08;;;1.85;;
76852;SDS011;65825;52.232;10.566;2023-04-24T09:55:10;2.78;;;1.80;;
76852;SDS011;65825;52.232;10.566;2023-04-24T09:57:36;3.95;;;1.70;;
76852;SDS011;65825;52.232;10.566;2023-04-24T10:00:12;3.28;;;1.80;;
76852;SDS011;65825;52.232;10.566;2023-04-24T10:02:38;2.00;;;1.50;;
76852;SDS011;65825;52.232;10.566;2023-04-24T10:05:03;2.20;;;1.60;;
76852;SDS011;65825;52.232;10.566;2023-04-24T10:09:57;2.60;;;1.88;;
76852;SDS011;65825;52.232;10.566;2023-04-24T10:12:23;2.90;;;1.98;;
76852;SDS011;65825;52.232;10.566;2023-04-24T10:14:50;2.90;;;1.85;;
76852;SDS011;65825;52.232;10.566;2023-04-24T10:17:15;2.55;;;2.00;;
76852;SDS011;65825;52.232;10.566;2023-04-24T10:19:41;2.47;;;1.70;;
76852;SDS011;65825;52.232;10.566;2023-04-24T10:22:08;3.15;;;1.63;;
76852;SDS011;65825;52.232;10.566;2023-04-24T10:24:34;3.03;;;1.98;;
76852;SDS011;65825;52.232;10.566;2023-04-24T10:27:02;3.28;;;2.33;;
76852;SDS011;65825;52.232;10.566;2023-04-24T10:29:28;4.15;;;1.80;;
76852;SDS011;65825;52.232;10.566;2023-04-24T10:31:56;3.35;;;1.90;;
76852;SDS011;65825;52.232;10.566;2023-04-24T10:34:21;3.73;;;1.73;;
76852;SDS011;65825;52.232;10.566;2023-04-24T10:36:49;3.17;;;1.70;;
76852;SDS011;65825;52.232;10.566;2023-04-24T10:39:17;6.32;;;1.90;;
76852;SDS011;65825;52.232;10.566;2023-04-24T10:41:44;2.50;;;1.65;;
76852;SDS011;65825;52.232;10.566;2023-04-24T10:44:14;3.97;;;2.20;;
76852;SDS011;65825;52.232;10.566;2023-04-24T10:46:45;3.45;;;2.10;;
76852;SDS011;65825;52.232;10.566;2023-04-24T10:49:14;3.00;;;2.00;;
76852;SDS011;65825;52.232;10.566;2023-04-24T10:51:52;2.30;;;1.63;;
76852;SDS011;65825;52.232;10.566;2023-04-24T10:54:22;2.60;;;1.48;;
76852;SDS011;65825;52.232;10.566;2023-04-24T10:59:49;2.92;;;1.60;;
76852;SDS011;65825;52.232;10.566;2023-04-24T11:02:15;3.85;;;1.70;;
76852;SDS011;65825;52.232;10.566;2023-04-24T11:04:42;2.15;;;1.52;;
76852;SDS011;65825;52.232;10.566;2023-04-24T11:07:08;3.58;;;1.73;;
76852;SDS011;65825;52.232;10.566;2023-04-24T11:09:34;2.53;;;1.48;;
76852;SDS011;65825;52.232;10.566;2023-04-24T11:12:04;3.33;;;1.55;;
76852;SDS011;65825;52.232;10.566;2023-04-24T11:17:27;2.95;;;1.60;;
76852;SDS011;65825;52.232;10.566;2023-04-24T11:19:55;2.50;;;1.60;;
76852;SDS011;65825;52.232;10.566;2023-04-24T11:22:26;3.58;;;1.70;;
76852;SDS011;65825;52.232;10.566;2023-04-24T11:24:56;2.95;;;1.50;;
76852;SDS011;65825;52.232;10.566;2023-04-24T11:27:21;2.45;;;1.73;;
76852;SDS011;65825;52.232;10.566;2023-04-24T11:32:28;1.60;;;1.30;;
76852;SDS011;65825;52.232;10.566;2023-04-24T11:34:58;3.88;;;1.70;;
76852;SDS011;65825;52.232;10.566;2023-04-24T11:37:33;2.53;;;1.55;;
76852;SDS011;65825;52.232;10.566;2023-04-24T11:40:01;2.38;;;1.50;;
76852;SDS011;65825;52.232;10.566;2023-04-24T11:44:53;1.63;;;1.30;;
76852;SDS011;65825;52.232;10.566;2023-04-24T11:47:27;2.55;;;1.58;;
76852;SDS011;65825;52.232;10.566;2023-04-24T11:49:53;1.50;;;1.13;;
76852;SDS011;65825;52.232;10.566;2023-04-24T11:52:18;2.33;;;1.37;;
76852;SDS011;65825;52.232;10.566;2023-04-24T11:54:47;3.38;;;1.40;;
76852;SDS011;65825;52.232;10.566;2023-04-24T11:57:14;2.30;;;1.60;;
76852;SDS011;65825;52.232;10.566;2023-04-24T11:59:39;2.22;;;1.50;;
76852;SDS011;65825;52.232;10.566;2023-04-24T12:02:07;2.55;;;1.58;;
76852;SDS011;65825;52.232;10.566;2023-04-24T12:04:39;2.10;;;1.57;;
76852;SDS011;65825;52.232;10.566;2023-04-24T12:07:05;2.72;;;1.65;;
76852;SDS011;65825;52.232;10.566;2023-04-24T12:12:07;2.08;;;1.48;;
76852;SDS011;65825;52.232;10.566;2023-04-24T12:14:41;2.30;;;1.50;;
76852;SDS011;65825;52.232;10.566;2023-04-24T12:17:07;2.63;;;1.63;;
76852;SDS011;65825;52.232;10.566;2023-04-24T12:19:32;1.80;;;1.30;;
76852;SDS011;65825;52.232;10.566;2023-04-24T12:22:01;2.17;;;1.53;;
76852;SDS011;65825;52.232;10.566;2023-04-24T12:24:29;3.05;;;1.83;;
76852;SDS011;65825;52.232;10.566;2023-04-24T12:26:55;3.20;;;1.90;;
76852;SDS011;65825;52.232;10.566;2023-04-24T12:29:21;3.03;;;1.63;;
76852;SDS011;65825;52.232;10.566;2023-04-24T12:31:47;5.50;;;1.80;;
76852;SDS011;65825;52.232;10.566;2023-04-24T12:34:22;2.60;;;1.80;;
76852;SDS011;65825;52.232;10.566;2023-04-24T12:36:48;3.63;;;1.67;;
76852;SDS011;65825;52.232;10.566;2023-04-24T12:39:14;2.92;;;1.63;;
76852;SDS011;65825;52.232;10.566;2023-04-24T12:41:54;2.28;;;1.70;;
76852;SDS011;65825;52.232;10.566;2023-04-24T12:44:33;2.70;;;1.63;;
76852;SDS011;65825;52.232;10.566;2023-04-24T12:47:02;3.17;;;1.50;;
76852;SDS011;65825;52.232;10.566;2023-04-24T12:49:29;1.90;;;1.30;;
76852;SDS011;65825;52.232;10.566;2023-04-24T12:51:55;2.42;;;1.52;;
76852;SDS011;65825;52.232;10.566;2023-04-24T12:54:21;2.08;;;1.42;;
76852;SDS011;65825;52.232;10.566;2023-04-24T12:56:46;5.63;;;1.50;;
76852;SDS011;65825;52.232;10.566;2023-04-24T12:59:12;2.00;;;1.37;;
76852;SDS011;65825;52.232;10.566;2023-04-24T13:01:37;1.83;;;1.20;;
76852;SDS011;65825;52.232;10.566;2023-04-24T13:04:02;2.97;;;1.20;;
76852;SDS011;65825;52.232;10.566;2023-04-24T13:06:28;1.77;;;1.30;;
76852;SDS011;65825;52.232;10.566;2023-04-24T13:08:53;3.03;;;1.10;;
76852;SDS011;65825;52.232;10.566;2023-04-24T13:11:19;0.82;;;0.82;;
76852;SDS011;65825;52.232;10.566;2023-04-24T13:13:46;3.83;;;1.00;;
76852;SDS011;65825;52.232;10.566;2023-04-24T13:16:11;2.08;;;1.30;;
76852;SDS011;65825;52.232;10.566;2023-04-24T13:18:37;2.00;;;1.30;;
76852;SDS011;65825;52.232;10.566;2023-04-24T13:21:02;3.40;;;1.47;;
76852;SDS011;65825;52.232;10.566;2023-04-24T13:23:27;1.35;;;0.95;;
76852;SDS011;65825;52.232;10.566;2023-04-24T13:25:52;1.13;;;0.90;;
76852;SDS011;65825;52.232;10.566;2023-04-24T13:28:20;1.17;;;0.90;;
76852;SDS011;65825;52.232;10.566;2023-04-24T13:30:45;1.30;;;0.90;;
76852;SDS011;65825;52.232;10.566;2023-04-24T13:33:10;0.82;;;0.82;;
76852;SDS011;65825;52.232;10.566;2023-04-24T13:35:36;1.47;;;1.10;;
76852;SDS011;65825;52.232;10.566;2023-04-24T13:38:01;0.87;;;0.80;;
76852;SDS011;65825;52.232;10.566;2023-04-24T13:40:30;0.80;;;0.80;;
76852;SDS011;65825;52.232;10.566;2023-04-24T13:42:55;1.67;;;0.90;;
76852;SDS011;65825;52.232;10.566;2023-04-24T13:45:21;1.10;;;1.00;;
76852;SDS011;65825;52.232;10.566;2023-04-24T13:47:46;0.70;;;0.60;;
76852;SDS011;65825;52.232;10.566;2023-04-24T13:50:11;0.80;;;0.80;;
76852;SDS011;65825;52.232;10.566;2023-04-24T13:52:37;1.33;;;1.00;;
76852;SDS011;65825;52.232;10.566;2023-04-24T13:55:02;1.37;;;1.10;;
76852;SDS011;65825;52.232;10.566;2023-04-24T13:57:27;1.58;;;1.15;;
76852;SDS011;65825;52.232;10.566;2023-04-24T13:59:53;1.92;;;1.10;;
76852;SDS011;65825;52.232;10.566;2023-04-24T14:02:18;1.85;;;1.08;;
76852;SDS011;65825;52.232;10.566;2023-04-24T14:04:44;1.33;;;0.90;;
76852;SDS011;65825;52.232;10.566;2023-04-24T14:07:09;1.88;;;1.30;;
76852;SDS011;65825;52.232;10.566;2023-04-24T14:09:34;1.27;;;1.00;;
76852;SDS011;65825;52.232;10.566;2023-04-24T14:12:00;1.55;;;1.20;;
76852;SDS011;65825;52.232;10.566;2023-04-24T14:14:26;1.20;;;1.10;;
76852;SDS011;65825;52.232;10.566;2023-04-24T14:16:52;1.17;;;1.00;;
76852;SDS011;65825;52.232;10.566;2023-04-24T14:19:17;0.90;;;0.90;;
76852;SDS011;65825;52.232;10.566;2023-04-24T14:21:42;1.70;;;1.10;;
76852;SDS011;65825;52.232;10.566;2023-04-24T14:24:08;2.33;;;1.10;;
76852;SDS011;65825;52.232;10.566;2023-04-24T14:26:33;1.15;;;0.90;;
76852;SDS011;65825;52.232;10.566;2023-04-24T14:28:58;1.43;;;0.90;;
76852;SDS011;65825;52.232;10.566;2023-04-24T14:31:24;0.88;;;0.88;;
76852;SDS011;65825;52.232;10.566;2023-04-24T14:33:49;1.15;;;0.98;;
76852;SDS011;65825;52.232;10.566;2023-04-24T14:36:14;1.38;;;1.00;;
76852;SDS011;65825;52.232;10.566;2023-04-24T14:38:40;0.90;;;0.90;;
76852;SDS011;65825;52.232;10.566;2023-04-24T14:41:05;0.97;;;0.83;;
76852;SDS011;65825;52.232;10.566;2023-04-24T14:43:34;0.80;;;0.80;;
76852;SDS011;65825;52.232;10.566;2023-04-24T14:46:00;0.75;;;0.75;;
76852;SDS011;65825;52.232;10.566;2023-04-24T14:48:25;0.65;;;0.65;;
76852;SDS011;65825;52.232;10.566;2023-04-24T14:50:53;0.65;;;0.65;;
76852;SDS011;65825;52.232;10.566;2023-04-24T14:53:18;1.97;;;1.00;;
76852;SDS011;65825;52.232;10.566;2023-04-24T14:55:43;0.67;;;0.67;;